Map

Track Data

SID SEASON NUMBER BASIN SUBBASIN NAME ISO_TIME NATURE LAT LON WMO_WIND WMO_PRES WMO_AGENCY TRACK_TYPE DIST2LAND LANDFALL IFLAG USA_AGENCY USA_ATCF_ID USA_LAT USA_LON USA_RECORD USA_STATUS USA_WIND USA_PRES USA_SSHS USA_R34_NE USA_R34_SE USA_R34_SW USA_R34_NW USA_R50_NE USA_R50_SE USA_R50_SW USA_R50_NW USA_R64_NE USA_R64_SE USA_R64_SW USA_R64_NW USA_POCI USA_ROCI USA_RMW USA_EYE TOKYO_LAT TOKYO_LON TOKYO_GRADE TOKYO_WIND TOKYO_PRES TOKYO_R50_DIR TOKYO_R50_LONG TOKYO_R50_SHORT TOKYO_R30_DIR TOKYO_R30_LONG TOKYO_R30_SHORT TOKYO_LAND CMA_LAT CMA_LON CMA_CAT CMA_WIND CMA_PRES HKO_LAT HKO_LON HKO_CAT HKO_WIND HKO_PRES NEWDELHI_LAT NEWDELHI_LON NEWDELHI_GRADE NEWDELHI_WIND NEWDELHI_PRES NEWDELHI_CI NEWDELHI_DP NEWDELHI_POCI REUNION_LAT REUNION_LON REUNION_TYPE REUNION_WIND REUNION_PRES REUNION_TNUM REUNION_CI REUNION_RMW REUNION_R34_NE REUNION_R34_SE REUNION_R34_SW REUNION_R34_NW REUNION_R50_NE REUNION_R50_SE REUNION_R50_SW REUNION_R50_NW REUNION_R64_NE REUNION_R64_SE REUNION_R64_SW REUNION_R64_NW BOM_LAT BOM_LON BOM_TYPE BOM_WIND BOM_PRES BOM_TNUM BOM_CI BOM_RMW BOM_R34_NE BOM_R34_SE BOM_R34_SW BOM_R34_NW BOM_R50_NE BOM_R50_SE BOM_R50_SW BOM_R50_NW BOM_R64_NE BOM_R64_SE BOM_R64_SW BOM_R64_NW BOM_ROCI BOM_POCI BOM_EYE BOM_POS_METHOD BOM_PRES_METHOD NADI_LAT NADI_LON NADI_CAT NADI_WIND NADI_PRES WELLINGTON_LAT WELLINGTON_LON WELLINGTON_WIND WELLINGTON_PRES DS824_LAT DS824_LON DS824_STAGE DS824_WIND DS824_PRES TD9636_LAT TD9636_LON TD9636_STAGE TD9636_WIND TD9636_PRES TD9635_LAT TD9635_LON TD9635_WIND TD9635_PRES TD9635_ROCI NEUMANN_LAT NEUMANN_LON NEUMANN_CLASS NEUMANN_WIND NEUMANN_PRES MLC_LAT MLC_LON MLC_CLASS MLC_WIND MLC_PRES USA_GUST BOM_GUST BOM_GUST_PER REUNION_GUST REUNION_GUST_PER USA_SEAHGT USA_SEARAD_NE USA_SEARAD_SE USA_SEARAD_SW USA_SEARAD_NW STORM_SPEED STORM_DIR
1982249N17307 1982 70 NA NA NOT_NAMED 1982-09-06 00:00:00 TS 16.8000 -53.0000 20 hurdat_atl main 1101 1066 O_____________ hurdat_atl AL041982 16.8000 -53.0000 TD 20 -1 11 277
1982249N17307 1982 70 NA NA NOT_NAMED 1982-09-06 03:00:00 TS 16.8654 -53.5622 main 1058 1018 P_____________ AL041982 16.8654 -53.5622 TD 22 -1 11 275
1982249N17307 1982 70 NA NA NOT_NAMED 1982-09-06 06:00:00 TS 16.9000 -54.1000 25 hurdat_atl main 1018 979 O_____________ hurdat_atl AL041982 16.9000 -54.1000 TD 25 -1 10 272
1982249N17307 1982 70 NA NA NOT_NAMED 1982-09-06 09:00:00 TS 16.9048 -54.6004 main 979 950 P_____________ AL041982 16.9048 -54.6004 TD 25 -1 10 276
1982249N17307 1982 70 NA NA NOT_NAMED 1982-09-06 12:00:00 TS 17.0000 -55.1000 25 hurdat_atl main 950 937 O_____________ hurdat_atl AL041982 17.0000 -55.1000 TD 25 -1 11 293
1982249N17307 1982 70 NA NA NOT_NAMED 1982-09-06 15:00:00 TS 17.3350 -55.6495 main 940 935 P_____________ AL041982 17.3350 -55.6495 TD 27 -1 13 304
1982249N17307 1982 70 NA NA NOT_NAMED 1982-09-06 18:00:00 TS 17.7000 -56.2000 30 hurdat_atl main 939 920 O_____________ hurdat_atl AL041982 17.7000 -56.2000 TD 30 -1 11 297
1982249N17307 1982 70 NA NA NOT_NAMED 1982-09-06 21:00:00 TS 17.8573 -56.7081 main 929 888 P_____________ AL041982 17.8573 -56.7081 TD 30 -1 10 287
1982249N17307 1982 70 NA NA NOT_NAMED 1982-09-07 00:00:00 TS 18.0000 -57.2000 30 hurdat_atl main 888 833 O_____________ hurdat_atl AL041982 18.0000 -57.2000 TD 30 -1 11 294
1982249N17307 1982 70 NA NA NOT_NAMED 1982-09-07 03:00:00 TS 18.2925 -57.7148 main 833 780 P_____________ AL041982 18.2925 -57.7148 TD 30 -1 11 302
1982249N17307 1982 70 NA NA NOT_NAMED 1982-09-07 06:00:00 TS 18.6000 -58.2000 30 hurdat_atl main 780 739 O_____________ hurdat_atl AL041982 18.6000 -58.2000 TD 30 -1 10 302
1982249N17307 1982 70 NA NA NOT_NAMED 1982-09-07 09:00:00 TS 18.8071 -58.5855 main 739 698 P_____________ AL041982 18.8071 -58.5855 TD 30 -1 9 298
1982249N17307 1982 70 NA NA NOT_NAMED 1982-09-07 12:00:00 TS 19.0000 -59.0000 30 hurdat_atl main 698 637 O_____________ hurdat_atl AL041982 19.0000 -59.0000 TD 30 -1 10 295
1982249N17307 1982 70 NA NA NOT_NAMED 1982-09-07 15:00:00 TS 19.2427 -59.5849 main 637 581 P_____________ AL041982 19.2427 -59.5849 TD 30 -1 12 294
1982249N17307 1982 70 NA NA NOT_NAMED 1982-09-07 18:00:00 TS 19.5000 -60.2000 30 hurdat_atl main 581 535 O_____________ hurdat_atl AL041982 19.5000 -60.2000 TD 30 -1 12 296
1982249N17307 1982 70 NA NA NOT_NAMED 1982-09-07 21:00:00 TS 19.7572 -60.7151 main 538 495 P_____________ AL041982 19.7572 -60.7151 TD 30 -1 11 298
1982249N17307 1982 70 NA NA NOT_NAMED 1982-09-08 00:00:00 TS 20.0000 -61.2000 30 hurdat_atl main 495 456 O_____________ hurdat_atl AL041982 20.0000 -61.2000 TD 30 -1 10 295
1982249N17307 1982 70 NA NA NOT_NAMED 1982-09-08 03:00:00 TS 20.1925 -61.7153 main 456 420 P_____________ AL041982 20.1925 -61.7153 TD 30 -1 10 293
1982249N17307 1982 70 NA NA NOT_NAMED 1982-09-08 06:00:00 TS 20.4000 -62.2000 30 hurdat_atl main 420 399 O_____________ hurdat_atl AL041982 20.4000 -62.2000 TD 30 -1 10 300
1982249N17307 1982 70 NA NA NOT_NAMED 1982-09-08 09:00:00 TS 20.6697 -62.6003 main 406 397 P_____________ AL041982 20.6697 -62.6003 TD 30 -1 10 309
1982249N17307 1982 70 NA NA NOT_NAMED 1982-09-08 12:00:00 TS 21.0000 -63.0000 30 hurdat_atl main 398 391 O_____________ hurdat_atl AL041982 21.0000 -63.0000 TD 30 -1 11 311
1982249N17307 1982 70 NA NA NOT_NAMED 1982-09-08 15:00:00 TS 21.4000 -63.4923 main 400 399 P_____________ AL041982 21.4000 -63.4923 TD 30 -1 12 311
1982249N17307 1982 70 NA NA NOT_NAMED 1982-09-08 18:00:00 TS 21.8000 -64.0000 30 hurdat_atl main 415 411 O_____________ hurdat_atl AL041982 21.8000 -64.0000 TD 30 -1 12 307
1982249N17307 1982 70 NA NA NOT_NAMED 1982-09-08 21:00:00 TS 22.1000 -64.4803 main 429 426 P_____________ AL041982 22.1000 -64.4803 TD 27 -1 10 306
1982249N17307 1982 70 NA NA NOT_NAMED 1982-09-09 00:00:00 TS 22.4000 -64.9000 25 hurdat_atl main 453 453 O_____________ hurdat_atl AL041982 22.4000 -64.9000 TD 25 -1 10 315
1982249N17307 1982 70 NA NA NOT_NAMED 1982-09-09 03:00:00 TS 22.7848 -65.2302 main 493 493 P_____________ AL041982 22.7848 -65.2302 TD 25 -1 10 325
1982249N17307 1982 70 NA NA NOT_NAMED 1982-09-09 06:00:00 TS 23.2000 -65.5000 25 hurdat_atl main 536 536 O_____________ hurdat_atl AL041982 23.2000 -65.5000 TD 25 -1 10 330
1982249N17307 1982 70 NA NA NOT_NAMED 1982-09-09 09:00:00 TS 23.6051 -65.7522 main 581 581 P_____________ AL041982 23.6051 -65.7522 TD 22 -1 9 330
1982249N17307 1982 70 NA NA NOT_NAMED 1982-09-09 12:00:00 TS 24.0000 -66.0000 20 hurdat_atl main 626 O_____________ hurdat_atl AL041982 24.0000 -66.0000 TD 20 -1 9 330

About IBTrACS Database

This database is a web-friendly format of International Best Track Archive for Climate Stewardship (IBTrACS), a global best track data archive curated by NOAA dating back to 1842.

Updated: 2021-12-01